Time;durP1;ratioP1;P1;durP2;ratioP2;P2;SDS_P1;SDS_P2;PMS_P1;PMS_P2;Temp;Humidity;BMP_temperature;BMP_pressure;BME280_temperature;BME280_humidity;BME280_pressure;Samples;Min_cycle;Max_cycle;Signal;HPM_P1;HPM_P2
2022/12/02 00:03:45;;;;;;;90.32;46.63;;;;;;;0.65;100.00;100792.97;10377693;28;20514;-75
2022/12/02 00:08:47;;;;;;;93.57;45.60;;;;;;;0.49;100.00;100784.03;10379113;28;20203;-75
2022/12/02 00:13:49;;;;;;;95.63;45.58;;;;;;;0.57;100.00;100785.91;10379544;28;20037;-75
2022/12/02 00:18:52;;;;;;;94.45;47.55;;;;;;;0.58;100.00;100785.09;10377439;28;20123;-75
2022/12/02 00:23:54;;;;;;;97.68;47.45;;;;;;;0.53;100.00;100784.09;10374674;28;20034;-75
2022/12/02 00:28:56;;;;;;;95.90;47.38;;;;;;;0.44;100.00;100771.84;10379067;28;20046;-74
2022/12/02 00:33:59;;;;;;;96.72;47.75;;;;;;;0.40;100.00;100772.59;10383409;28;20053;-76
2022/12/02 00:39:02;;;;;;;96.45;45.83;;;;;;;0.63;100.00;100770.53;10382860;28;20038;-75
2022/12/02 00:49:25;;;;;;;96.80;47.35;;;;;;;0.65;100.00;100774.00;10383540;28;20044;-75
2022/12/02 00:54:27;;;;;;;99.50;48.33;;;;;;;0.45;100.00;100764.13;10381842;28;20046;-76
2022/12/02 00:59:29;;;;;;;95.22;46.33;;;;;;;0.47;100.00;100759.84;10384644;28;20034;-75
2022/12/02 01:04:31;;;;;;;99.20;49.28;;;;;;;0.53;100.00;100764.25;10382614;28;20064;-75
2022/12/02 01:09:32;;;;;;;101.32;48.67;;;;;;;0.53;100.00;100758.22;10384418;28;20598;-75
2022/12/02 01:14:34;;;;;;;103.07;48.83;;;;;;;0.55;100.00;100757.41;10381979;28;20058;-75
2022/12/02 01:19:36;;;;;;;95.30;47.70;;;;;;;0.44;100.00;100754.63;10381950;28;20045;-75
2022/12/02 01:24:38;;;;;;;102.45;49.50;;;;;;;0.58;100.00;100760.09;10381339;28;20049;-74
2022/12/02 01:29:41;;;;;;;97.40;46.72;;;;;;;0.58;100.00;100751.44;10381885;28;20491;-71
2022/12/02 01:34:42;;;;;;;95.95;47.72;;;;;;;0.61;100.00;100754.94;10380227;28;20041;-72
2022/12/02 01:39:44;;;;;;;97.90;46.75;;;;;;;0.67;100.00;100754.22;10380686;28;20062;-71
2022/12/02 01:44:47;;;;;;;97.85;47.00;;;;;;;0.53;100.00;100753.03;10363576;28;20415;-71
2022/12/02 01:49:50;;;;;;;97.45;46.72;;;;;;;0.55;100.00;100761.72;10381149;28;20045;-72
2022/12/02 01:54:52;;;;;;;101.82;48.60;;;;;;;0.50;100.00;100754.75;10380296;28;20080;-73
2022/12/02 01:59:55;;;;;;;98.75;47.85;;;;;;;0.60;100.00;100754.94;10364146;28;20072;-72
2022/12/02 02:05:02;;;;;;;97.68;47.67;;;;;;;0.69;100.00;100747.34;10380825;28;20526;-72
2022/12/02 02:10:05;;;;;;;93.28;46.15;;;;;;;0.57;100.00;100754.84;10380780;28;20042;-72
2022/12/02 02:15:10;;;;;;;99.18;47.42;;;;;;;0.54;100.00;100744.47;10380459;28;20046;-72
2022/12/02 02:20:16;;;;;;;108.57;49.78;;;;;;;0.57;100.00;100742.78;10378510;28;20049;-71
2022/12/02 02:25:18;;;;;;;91.15;45.85;;;;;;;0.52;100.00;100723.72;10378237;28;20046;-72
2022/12/02 02:30:23;;;;;;;94.30;46.53;;;;;;;0.52;100.00;100725.44;10379412;28;20053;-73
2022/12/02 02:35:27;;;;;;;94.28;46.22;;;;;;;0.93;100.00;100723.63;10379933;28;20415;-72
2022/12/02 02:40:30;;;;;;;96.53;45.53;;;;;;;0.62;100.00;100707.56;10378997;28;20050;-73
2022/12/02 02:45:36;;;;;;;93.10;45.17;;;;;;;0.71;100.00;100704.28;10379002;28;20137;-72
2022/12/02 02:50:43;;;;;;;91.13;43.33;;;;;;;0.83;100.00;100694.13;10379787;28;20045;-73
2022/12/02 02:55:47;;;;;;;83.82;42.67;;;;;;;0.84;100.00;100702.75;10380706;28;20113;-72
2022/12/02 03:01:00;;;;;;;74.13;38.65;;;;;;;0.78;100.00;100703.53;10379596;28;20049;-73
2022/12/02 03:06:06;;;;;;;75.53;40.20;;;;;;;1.02;100.00;100703.13;10378181;28;20400;-71
2022/12/02 03:11:08;;;;;;;73.15;38.80;;;;;;;0.90;100.00;100708.06;10376740;28;20045;-73
2022/12/02 03:16:13;;;;;;;71.70;38.60;;;;;;;0.84;100.00;100700.16;10379238;28;20052;-73
2022/12/02 03:21:18;;;;;;;63.60;36.38;;;;;;;0.86;100.00;100707.13;10379256;28;20049;-73
2022/12/02 03:26:20;;;;;;;65.35;38.20;;;;;;;0.90;100.00;100711.53;10379614;28;20048;-71
2022/12/02 03:31:23;;;;;;;53.92;33.85;;;;;;;0.71;100.00;100696.50;10379172;28;20041;-73
2022/12/02 03:36:26;;;;;;;55.92;34.47;;;;;;;0.98;100.00;100697.00;10377920;28;20486;-71
2022/12/02 03:41:28;;;;;;;55.72;33.47;;;;;;;1.06;99.49;100684.16;10376980;28;20034;-71
2022/12/02 03:46:30;;;;;;;53.63;34.33;;;;;;;1.06;98.44;100683.31;10377263;28;20068;-73
2022/12/02 03:51:32;;;;;;;52.08;34.08;;;;;;;0.89;98.86;100688.22;10375586;28;20038;-72
2022/12/02 03:56:38;;;;;;;53.13;34.03;;;;;;;1.07;97.88;100685.06;10377418;28;20049;-71
2022/12/02 04:01:40;;;;;;;58.20;36.37;;;;;;;1.07;98.62;100683.34;10377919;28;20034;-72
2022/12/02 04:06:42;;;;;;;51.17;33.85;;;;;;;1.07;98.00;100688.53;10385459;28;20092;-72
2022/12/02 04:11:43;;;;;;;57.33;34.58;;;;;;;1.09;98.17;100676.47;10383498;28;20041;-71
2022/12/02 04:16:45;;;;;;;51.50;33.75;;;;;;;0.89;98.52;100670.97;10384842;28;20100;-71
2022/12/02 04:21:47;;;;;;;57.85;34.60;;;;;;;0.83;99.37;100667.38;10384081;28;20034;-71
2022/12/02 04:26:49;;;;;;;58.95;36.22;;;;;;;0.83;99.99;100668.25;10382181;28;20125;-71
2022/12/02 04:31:50;;;;;;;54.90;36.08;;;;;;;0.95;98.67;100663.28;10383255;28;20046;-72
2022/12/02 04:36:52;;;;;;;57.78;34.45;;;;;;;0.79;100.00;100660.41;10382490;28;20053;-71
2022/12/02 04:41:54;;;;;;;58.78;33.92;;;;;;;0.79;100.00;100661.28;10385014;28;20041;-72
2022/12/02 04:46:55;;;;;;;56.33;34.05;;;;;;;0.65;100.00;100653.25;10381850;28;20046;-71
2022/12/02 04:51:57;;;;;;;57.55;34.30;;;;;;;0.58;100.00;100650.56;10381576;28;20060;-72
2022/12/02 04:56:59;;;;;;;63.30;36.33;;;;;;;0.61;100.00;100654.03;10382633;28;20042;-72
2022/12/02 05:02:01;;;;;;;57.78;36.22;;;;;;;0.52;100.00;100661.63;10382425;28;20496;-73
2022/12/02 05:07:02;;;;;;;61.08;36.13;;;;;;;0.40;100.00;100670.06;10383815;28;20066;-73
2022/12/02 05:12:04;;;;;;;60.97;37.40;;;;;;;0.46;100.00;100653.78;10382833;28;20101;-73
2022/12/02 05:17:06;;;;;;;58.88;37.63;;;;;;;0.45;100.00;100663.25;10382293;28;20050;-73
2022/12/02 05:22:08;;;;;;;51.72;34.05;;;;;;;0.52;100.00;100664.22;10383490;28;20042;-73
2022/12/02 05:27:11;;;;;;;59.17;35.28;;;;;;;0.49;100.00;100670.22;10384357;28;20042;-73
2022/12/02 05:32:12;;;;;;;53.50;35.15;;;;;;;0.48;100.00;100660.69;10383239;28;20034;-72
2022/12/02 05:37:14;;;;;;;54.45;34.55;;;;;;;0.45;100.00;100662.38;10384470;28;20046;-74
2022/12/02 05:42:16;;;;;;;55.63;34.20;;;;;;;0.48;100.00;100665.88;10383672;28;20475;-74
2022/12/02 05:47:18;;;;;;;56.80;34.47;;;;;;;0.56;100.00;100671.19;10384125;28;20046;-72
2022/12/02 05:52:28;;;;;;;54.70;33.53;;;;;;;0.53;100.00;100665.09;10383816;28;20116;-72
2022/12/02 05:57:30;;;;;;;49.10;33.08;;;;;;;0.53;100.00;100667.69;10383246;28;20042;-74
2022/12/02 06:02:37;;;;;;;57.88;34.58;;;;;;;0.49;100.00;100669.38;10383463;28;20052;-74
2022/12/02 06:07:42;;;;;;;60.25;35.03;;;;;;;0.41;100.00;100669.22;10390151;28;20461;-73
2022/12/02 06:12:44;;;;;;;54.20;34.08;;;;;;;0.54;100.00;100672.03;10385838;28;20069;-73
2022/12/02 06:17:46;;;;;;;53.30;35.40;;;;;;;0.50;100.00;100678.84;10386576;28;20054;-74
2022/12/02 06:22:50;;;;;;;55.83;33.88;;;;;;;0.57;100.00;100672.06;10382542;28;20133;-73
2022/12/02 06:27:55;;;;;;;50.42;33.00;;;;;;;0.65;99.83;100679.13;10386261;28;20061;-73
2022/12/02 06:33:00;;;;;;;53.53;33.60;;;;;;;0.54;100.00;100669.44;10384804;28;20101;-73
2022/12/02 06:38:15;;;;;;;43.92;30.67;;;;;;;0.56;100.00;100676.38;10384115;28;20112;-72
2022/12/02 06:43:25;;;;;;;51.90;32.75;;;;;;;0.42;100.00;100670.94;10381414;28;20038;-72
2022/12/02 06:48:31;;;;;;;48.22;33.55;;;;;;;0.65;100.00;100667.91;10382958;28;20050;-73
2022/12/02 06:53:36;;;;;;;50.00;33.08;;;;;;;0.55;99.60;100687.56;10383783;28;20571;-72
2022/12/02 06:58:42;;;;;;;45.10;31.25;;;;;;;0.43;99.75;100682.16;10388184;28;20120;-73
2022/12/02 07:04:00;;;;;;;45.83;31.90;;;;;;;0.61;98.47;100673.88;10387114;28;20056;-74
2022/12/02 07:09:27;;;;;;;47.15;32.88;;;;;;;0.70;98.14;100684.41;10381400;28;20088;-72
2022/12/02 07:14:35;;;;;;;45.10;31.10;;;;;;;0.57;98.41;100685.88;10378862;28;20045;-71
2022/12/02 07:19:40;;;;;;;39.35;30.20;;;;;;;0.77;96.85;100685.41;10379162;28;20056;-73
2022/12/02 07:24:53;;;;;;;45.88;31.55;;;;;;;0.67;96.31;100684.38;10378419;28;20057;-74
2022/12/02 07:29:57;;;;;;;46.05;31.15;;;;;;;0.60;97.30;100685.94;10391020;23;20049;-72
2022/12/02 07:34:59;;;;;;;49.55;33.85;;;;;;;0.66;97.21;100672.25;10375668;28;20049;-72
2022/12/02 07:40:01;;;;;;;43.53;30.85;;;;;;;0.89;94.79;100673.56;10374672;28;20034;-72
2022/12/02 07:45:03;;;;;;;45.78;31.27;;;;;;;0.66;96.06;100672.25;10375474;28;20092;-73
2022/12/02 07:50:07;;;;;;;51.20;34.35;;;;;;;0.69;96.74;100669.72;10374564;28;20034;-73
2022/12/02 07:55:09;;;;;;;47.60;30.48;;;;;;;0.72;95.04;100670.66;10375568;28;20491;-72
2022/12/02 08:00:11;;;;;;;46.60;32.22;;;;;;;0.72;96.32;100670.66;10357846;28;20462;-70
2022/12/02 08:05:13;;;;;;;57.85;35.00;;;;;;;0.71;96.28;100668.06;10400071;28;20052;-71
2022/12/02 08:10:15;;;;;;;57.92;34.97;;;;;;;0.84;95.93;100680.38;10415657;28;20488;-72
2022/12/02 08:15:17;;;;;;;59.53;37.03;;;;;;;0.74;95.71;100671.53;10413448;28;20053;-71
2022/12/02 08:20:20;;;;;;;64.53;38.58;;;;;;;0.62;96.24;100670.44;10415604;28;20430;-71
2022/12/02 08:25:21;;;;;;;64.25;37.90;;;;;;;0.57;96.60;100669.47;10414203;28;20191;-71
2022/12/02 08:30:23;;;;;;;73.53;39.53;;;;;;;0.61;97.12;100674.75;10414167;28;20034;-71
2022/12/02 08:35:25;;;;;;;74.10;40.47;;;;;;;0.69;96.74;100682.66;10414056;28;20050;-72
2022/12/02 08:40:26;;;;;;;63.58;37.45;;;;;;;0.73;96.40;100680.16;10397270;28;20046;-72
2022/12/02 08:45:28;;;;;;;62.72;37.45;;;;;;;0.68;96.10;100680.91;10412855;28;20438;-71
2022/12/02 08:50:30;;;;;;;69.80;37.65;;;;;;;0.57;96.37;100675.53;10419945;28;20479;-72
2022/12/02 08:55:32;;;;;;;65.13;36.63;;;;;;;0.58;96.16;100679.00;10420309;28;20457;-72
2022/12/02 09:00:34;;;;;;;66.60;36.55;;;;;;;0.66;96.25;100687.75;10420526;28;20052;-72
2022/12/02 09:05:43;;;;;;;55.05;32.92;;;;;;;0.60;96.53;100677.31;10422408;28;20446;-72
2022/12/02 09:10:44;;;;;;;56.78;33.92;;;;;;;0.69;96.32;100680.06;10422220;28;20446;-72
2022/12/02 09:15:46;;;;;;;60.05;34.50;;;;;;;0.61;96.30;100674.75;10422614;28;20056;-73
2022/12/02 09:20:48;;;;;;;51.35;32.72;;;;;;;0.71;95.54;100662.88;10421067;28;20052;-73
2022/12/02 09:25:50;;;;;;;48.78;30.88;;;;;;;0.67;95.43;100658.50;10421945;28;20045;-74
2022/12/02 09:30:51;;;;;;;50.03;30.92;;;;;;;0.66;95.79;100655.00;10403338;28;20093;-73
2022/12/02 09:35:53;;;;;;;56.17;33.35;;;;;;;0.69;95.28;100655.06;10422749;28;20049;-73
2022/12/02 09:40:55;;;;;;;53.20;32.55;;;;;;;0.50;96.32;100651.28;10422782;28;20064;-73
2022/12/02 09:45:57;;;;;;;40.90;29.55;;;;;;;0.74;94.25;100642.22;10421419;28;20045;-72
2022/12/02 09:51:00;;;;;;;45.28;30.45;;;;;;;0.73;94.18;100646.50;10419985;28;20096;-72
2022/12/02 09:56:02;;;;;;;42.90;30.00;;;;;;;0.66;95.33;100643.78;10421513;28;20041;-73
2022/12/02 10:01:08;;;;;;;40.97;29.23;;;;;;;0.69;94.02;100649.03;10420920;28;20491;-73
2022/12/02 10:06:22;;;;;;;53.55;32.20;;;;;;;0.62;94.95;100647.16;10419264;28;20111;-73
2022/12/02 10:11:27;;;;;;;59.95;34.30;;;;;;;0.78;94.82;100643.13;10420337;28;20046;-74
2022/12/02 10:16:29;;;;;;;58.85;35.47;;;;;;;0.77;95.25;100631.06;10402259;28;20053;-74
2022/12/02 10:21:31;;;;;;;53.20;32.42;;;;;;;0.81;94.77;100638.91;10418555;28;20487;-73
2022/12/02 10:26:48;;;;;;;54.35;34.95;;;;;;;0.66;95.47;100641.19;10420053;28;20050;-74
2022/12/02 10:31:54;;;;;;;;;;;;;;;0.74;94.14;100634.44;10419652;28;20388;-72
2022/12/02 10:37:15;;;;;;;51.83;32.53;;;;;;;0.68;94.93;100631.75;10418052;28;19928;-72
2022/12/02 10:42:20;;;;;;;52.85;32.38;;;;;;;0.70;94.55;100641.28;10419522;28;20038;-72
2022/12/02 10:47:23;;;;;;;51.70;31.85;;;;;;;0.53;94.45;100624.56;10419213;28;20050;-73
2022/12/02 10:52:34;;;;;;;46.67;30.65;;;;;;;0.61;94.13;100629.91;10401427;28;20037;-73
2022/12/02 10:57:37;;;;;;;56.67;32.30;;;;;;;0.71;94.32;100621.47;10416858;28;20041;-73
2022/12/02 11:02:45;;;;;;;43.25;28.95;;;;;;;0.66;93.79;100613.59;10416784;28;20068;-72
2022/12/02 11:08:00;;;;;;;49.08;30.23;;;;;;;0.85;92.84;100608.78;10417630;28;20050;-73
2022/12/02 11:13:11;;;;;;;53.65;32.33;;;;;;;0.75;93.63;100594.78;10418941;28;20124;-73
2022/12/02 11:18:29;;;;;;;49.30;31.80;;;;;;;0.62;94.06;100595.41;10417788;28;20572;-72
2022/12/02 11:23:32;;;;;;;45.40;30.10;;;;;;;0.71;93.40;100596.47;10417478;28;20045;-72
2022/12/02 11:28:45;;;;;;;38.75;27.85;;;;;;;0.71;92.43;100599.06;10417691;28;20044;-74
2022/12/02 11:33:46;;;;;;;40.47;26.95;;;;;;;0.65;92.24;100609.28;10417474;28;20470;-73
2022/12/02 11:38:54;;;;;;;40.38;27.02;;;;;;;0.68;92.53;100606.75;10418151;28;20053;-74
2022/12/02 11:44:00;;;;;;;36.22;26.52;;;;;;;0.72;92.22;100602.50;10417187;28;20045;-73
2022/12/02 11:49:17;;;;;;;;;;;;;;;0.71;92.00;100600.78;10415872;28;20064;-73
2022/12/02 11:54:20;;;;;;;43.90;27.83;;;;;;;0.61;92.77;100599.72;10416127;28;20275;-75
2022/12/02 11:59:29;;;;;;;44.42;29.67;;;;;;;0.78;91.84;100602.59;10416296;28;20068;-73
2022/12/02 12:04:31;;;;;;;47.05;27.42;;;;;;;0.78;92.60;100591.38;10400841;28;20107;-73
2022/12/02 12:09:33;;;;;;;37.25;27.40;;;;;;;0.83;91.16;100593.19;10416877;28;20121;-73
2022/12/02 12:15:03;;;;;;;42.95;26.90;;;;;;;0.91;91.35;100591.59;10417498;28;20518;-73
2022/12/02 12:20:34;;;;;;;51.13;29.27;;;;;;;0.81;93.07;100588.84;10418286;28;20038;-73
2022/12/02 12:25:38;;;;;;;47.72;29.45;;;;;;;0.75;92.77;100585.31;10422829;28;20045;-74
2022/12/02 12:30:40;;;;;;;46.28;30.08;;;;;;;0.70;93.23;100586.06;10424259;28;20128;-73
2022/12/02 12:35:42;;;;;;;51.65;31.38;;;;;;;0.69;93.65;100586.91;10423782;28;20049;-73
2022/12/02 12:40:46;;;;;;;54.20;31.40;;;;;;;0.80;93.69;100588.00;10425531;28;20561;-74
2022/12/02 12:45:50;;;;;;;52.08;30.80;;;;;;;0.79;93.09;100583.63;10422746;28;20049;-73
2022/12/02 12:50:52;;;;;;;58.22;32.10;;;;;;;0.78;93.98;100581.91;10424190;28;20073;-73
2022/12/02 12:55:55;;;;;;;56.33;34.05;;;;;;;0.70;94.49;100579.19;10407926;28;20123;-73
2022/12/02 13:01:02;;;;;;;56.15;32.45;;;;;;;0.75;93.67;100576.66;10422919;28;20495;-74
2022/12/02 13:06:04;;;;;;;56.00;33.75;;;;;;;0.83;93.53;100572.50;10423655;28;20087;-73
2022/12/02 13:11:06;;;;;;;63.72;34.95;;;;;;;0.75;94.79;100580.16;10422740;28;20046;-73
2022/12/02 13:16:07;;;;;;;57.28;32.40;;;;;;;0.84;94.68;100581.13;10421881;28;20060;-73
2022/12/02 13:21:09;;;;;;;66.03;35.67;;;;;;;0.72;95.02;100576.63;10423650;28;20045;-74
2022/12/02 13:26:11;;;;;;;64.60;36.35;;;;;;;0.80;94.70;100579.31;10423241;28;20037;-74
2022/12/02 13:31:16;;;;;;;62.45;34.80;;;;;;;0.81;94.30;100570.75;10424584;22;20046;-73
2022/12/02 13:36:17;;;;;;;64.50;34.65;;;;;;;0.80;95.94;100584.50;10382141;28;20096;-73
2022/12/02 13:41:19;;;;;;;66.13;35.22;;;;;;;0.72;95.27;100574.91;10380871;28;20037;-73
2022/12/02 13:46:21;;;;;;;68.80;35.08;;;;;;;0.73;95.45;100573.19;10380050;28;20049;-72
2022/12/02 13:51:22;;;;;;;67.38;35.78;;;;;;;0.65;95.01;100578.22;10380709;28;20096;-72
2022/12/02 13:56:24;;;;;;;63.83;34.90;;;;;;;0.75;94.78;100574.97;10382575;28;20402;-73
2022/12/02 14:01:26;;;;;;;60.03;32.67;;;;;;;0.87;92.95;100579.47;10380147;28;20046;-73
2022/12/02 14:06:28;;;;;;;60.50;32.70;;;;;;;0.65;93.02;100574.78;10380818;28;20057;-73
2022/12/02 14:11:30;;;;;;;58.60;31.38;;;;;;;0.69;92.90;100576.56;10379066;28;20034;-73
2022/12/02 14:16:31;;;;;;;42.83;27.38;;;;;;;0.89;89.82;100579.50;10380873;28;20479;-72
2022/12/02 14:21:33;;;;;;;47.17;26.77;;;;;;;0.74;89.99;100573.22;10381569;28;20038;-73
2022/12/02 14:26:35;;;;;;;43.95;26.90;;;;;;;0.75;88.69;100585.31;10378824;28;20121;-73
2022/12/02 14:31:37;;;;;;;47.25;28.45;;;;;;;0.82;88.81;100585.41;10378576;28;20038;-72
2022/12/02 14:36:39;;;;;;;50.17;28.50;;;;;;;0.83;88.50;100585.44;10380541;28;20450;-72
2022/12/02 14:41:41;;;;;;;49.25;30.23;;;;;;;0.72;90.03;100584.41;10378356;28;20038;-72
2022/12/02 14:46:45;;;;;;;56.40;30.55;;;;;;;0.65;90.34;100586.00;10378792;28;20077;-72
2022/12/02 14:51:48;;;;;;;54.75;29.67;;;;;;;0.84;89.72;100587.19;10379936;28;20117;-73
2022/12/02 14:56:49;;;;;;;49.85;28.17;;;;;;;0.85;88.19;100591.53;10378989;28;20037;-72
2022/12/02 15:01:51;;;;;;;45.75;28.83;;;;;;;0.72;89.03;100595.63;10377983;28;20053;-72
2022/12/02 15:06:53;;;;;;;53.17;29.02;;;;;;;0.67;88.66;100591.22;10376144;28;20054;-73
2022/12/02 15:11:56;;;;;;;46.15;28.45;;;;;;;0.70;88.40;100592.13;10376974;28;20096;-73
2022/12/02 15:16:58;;;;;;;51.05;28.67;;;;;;;0.56;88.26;100600.50;10379481;28;20046;-73
2022/12/02 15:22:00;;;;;;;52.95;28.98;;;;;;;0.59;89.23;100601.41;10378755;28;20042;-73
2022/12/02 15:27:05;;;;;;;47.42;28.73;;;;;;;0.64;87.42;100594.59;10380448;28;20135;-72
2022/12/02 15:32:07;;;;;;;56.53;30.40;;;;;;;0.62;87.68;100598.00;10377247;28;20411;-73
2022/12/02 15:37:08;;;;;;;50.95;29.60;;;;;;;0.56;88.44;100609.13;10376613;28;20065;-72
2022/12/02 15:42:10;;;;;;;62.60;30.13;;;;;;;0.67;87.94;100593.81;10380676;28;20050;-72
2022/12/02 15:47:12;;;;;;;58.92;31.02;;;;;;;0.66;87.35;100586.84;10375937;28;20050;-72
2022/12/02 15:52:14;;;;;;;45.97;27.58;;;;;;;0.59;86.79;100593.66;10375890;28;20042;-72
2022/12/02 15:57:16;;;;;;;54.70;29.70;;;;;;;0.44;88.39;100594.28;10380252;28;20049;-72
2022/12/02 16:02:17;;;;;;;53.80;30.70;;;;;;;0.59;87.68;100587.63;10389469;28;20045;-73
2022/12/02 16:07:19;;;;;;;53.83;30.55;;;;;;;0.62;87.87;100595.41;10392794;28;20129;-73
2022/12/02 16:12:21;;;;;;;56.75;32.70;;;;;;;0.64;87.93;100601.50;10387996;28;20042;-72
2022/12/02 16:17:23;;;;;;;66.97;33.67;;;;;;;0.52;89.22;100603.88;10390729;28;20058;-73
2022/12/02 16:22:25;;;;;;;65.82;35.25;;;;;;;0.57;90.05;100603.09;10390318;28;20038;-72
2022/12/02 16:27:26;;;;;;;66.03;34.38;;;;;;;0.56;89.71;100614.28;10392307;28;20491;-73
2022/12/02 16:32:28;;;;;;;67.38;35.28;;;;;;;0.64;88.82;100615.31;10388349;28;20034;-73
2022/12/02 16:37:30;;;;;;;64.10;33.97;;;;;;;0.58;88.76;100619.50;10388906;28;20504;-73
2022/12/02 16:42:32;;;;;;;71.95;36.95;;;;;;;0.52;90.28;100616.78;10389718;28;20386;-73
2022/12/02 16:47:33;;;;;;;60.13;34.13;;;;;;;0.47;89.89;100616.72;10389935;28;20050;-73
2022/12/02 16:52:35;;;;;;;71.68;35.55;;;;;;;0.62;88.85;100621.28;10390540;28;20045;-73
2022/12/02 16:57:37;;;;;;;66.07;35.22;;;;;;;0.58;89.45;100622.97;10394658;28;20046;-73
2022/12/02 17:02:41;;;;;;;71.53;36.28;;;;;;;0.42;90.47;100631.28;10422053;28;20069;-74
2022/12/02 17:07:43;;;;;;;76.47;36.85;;;;;;;0.30;91.29;100626.72;10388069;28;20046;-73
2022/12/02 17:12:45;;;;;;;68.70;36.97;;;;;;;0.38;90.22;100632.94;10381490;28;20550;-73
2022/12/02 17:17:47;;;;;;;66.53;35.50;;;;;;;0.44;90.16;100633.06;10381397;28;20556;-73
2022/12/02 17:22:49;;;;;;;70.88;36.80;;;;;;;0.53;89.66;100632.34;10383850;28;20388;-73
2022/12/02 17:27:50;;;;;;;67.55;36.53;;;;;;;0.43;89.83;100626.13;10392373;28;20042;-73
2022/12/02 17:32:52;;;;;;;68.85;35.35;;;;;;;0.37;90.23;100638.94;10426317;28;20552;-73
2022/12/02 17:37:57;;;;;;;76.32;39.00;;;;;;;0.22;90.66;100644.72;10423322;28;20057;-72
2022/12/02 17:42:59;;;;;;;83.35;40.40;;;;;;;0.26;91.21;100637.84;10411651;28;20463;-72
2022/12/02 17:48:01;;;;;;;75.18;37.15;;;;;;;0.43;90.06;100636.47;10423948;28;20598;-72
2022/12/02 17:53:02;;;;;;;70.88;37.30;;;;;;;0.25;91.69;100642.16;10413500;28;20050;-73
2022/12/02 17:58:04;;;;;;;79.32;38.20;;;;;;;0.45;89.87;100650.31;10378784;28;20048;-72
2022/12/02 18:03:06;;;;;;;64.70;34.83;;;;;;;0.40;89.58;100653.63;10378205;28;20050;-71
2022/12/02 18:08:10;;;;;;;74.28;36.05;;;;;;;0.17;90.65;100655.78;10380924;28;20057;-72
2022/12/02 18:13:13;;;;;;;69.85;34.08;;;;;;;0.40;89.47;100657.13;10411926;28;20049;-74
2022/12/02 18:18:15;;;;;;;72.20;34.95;;;;;;;0.35;90.17;100658.72;10380649;28;20096;-71
2022/12/02 18:23:17;;;;;;;72.68;35.83;;;;;;;0.43;90.15;100661.47;10376387;28;20046;-70
2022/12/02 18:28:19;;;;;;;71.15;35.38;;;;;;;0.40;89.67;100654.53;10378312;28;20107;-72
2022/12/02 18:33:20;;;;;;;64.50;34.28;;;;;;;0.42;89.00;100652.84;10377878;28;20187;-73
2022/12/02 18:38:22;;;;;;;72.75;34.88;;;;;;;0.30;89.77;100650.00;10379272;28;20077;-73
2022/12/02 18:43:24;;;;;;;74.78;35.35;;;;;;;0.33;90.04;100651.78;10377295;28;20121;-72
2022/12/02 18:48:26;;;;;;;73.70;36.70;;;;;;;0.27;89.90;100646.47;10377534;28;20100;-73
2022/12/02 18:53:27;;;;;;;71.95;37.00;;;;;;;0.13;91.20;100641.03;10376924;28;20046;-72
2022/12/02 18:58:29;;;;;;;69.47;35.15;;;;;;;0.34;90.11;100646.66;10380649;28;20072;-72
2022/12/02 19:03:31;;;;;;;72.78;36.22;;;;;;;0.14;90.98;100635.06;10394605;28;20045;-73
2022/12/02 19:08:33;;;;;;;69.10;35.35;;;;;;;0.29;89.96;100626.72;10417646;28;20072;-73
2022/12/02 19:13:35;;;;;;;77.07;37.17;;;;;;;0.20;91.28;100630.00;10402210;28;20041;-73
2022/12/02 19:18:36;;;;;;;78.25;35.65;;;;;;;0.20;91.44;100624.81;10421547;28;20045;-74
2022/12/02 19:23:42;;;;;;;71.13;36.75;;;;;;;0.18;90.83;100632.56;10417931;28;20096;-72
2022/12/02 19:28:44;;;;;;;66.63;34.92;;;;;;;0.23;90.90;100645.56;10418161;28;20151;-72
2022/12/02 19:33:46;;;;;;;68.82;35.60;;;;;;;0.11;90.86;100641.03;10409997;22;20069;-71
2022/12/02 19:38:48;;;;;;;67.78;35.50;;;;;;;0.19;90.77;100647.22;10382468;28;20109;-71
2022/12/02 19:43:50;;;;;;;73.47;36.25;;;;;;;0.21;90.58;100647.25;10382656;28;20046;-71
2022/12/02 19:48:53;;;;;;;75.60;37.42;;;;;;;0.38;90.24;100650.16;10365749;28;20045;-70
2022/12/02 19:53:57;;;;;;;75.22;36.78;;;;;;;0.25;90.65;100649.06;10381657;28;20558;-72
2022/12/02 19:59:01;;;;;;;74.70;36.80;;;;;;;0.14;91.06;100650.56;10373937;28;20081;-73
2022/12/02 20:04:03;;;;;;;77.45;37.03;;;;;;;0.12;91.75;100649.66;10374973;28;20101;-72
2022/12/02 20:09:25;;;;;;;76.90;36.45;;;;;;;0.21;90.99;100655.00;10375338;28;20042;-71
2022/12/02 20:14:27;;;;;;;77.22;37.33;;;;;;;0.12;91.20;100641.88;10375955;28;20483;-74
2022/12/02 20:19:29;;;;;;;71.47;35.33;;;;;;;0.13;90.50;100646.22;10374676;28;20057;-71
2022/12/02 20:24:31;;;;;;;75.57;37.45;;;;;;;0.10;91.67;100644.47;10375677;28;20345;-72
2022/12/02 20:29:32;;;;;;;76.82;37.35;;;;;;;-0.09;93.90;100640.63;10374359;28;20045;-73
2022/12/02 20:34:34;;;;;;;75.68;38.15;;;;;;;-0.16;95.51;100638.75;10373912;28;20038;-73
2022/12/02 20:39:36;;;;;;;86.35;38.63;;;;;;;-0.08;95.62;100639.78;10373033;28;20082;-73
2022/12/02 20:44:38;;;;;;;75.50;38.22;;;;;;;-0.13;96.85;100643.13;10375624;28;20100;-72
2022/12/02 20:49:39;;;;;;;90.13;41.15;;;;;;;-0.20;98.45;100642.09;10381517;28;20088;-74
2022/12/02 20:54:41;;;;;;;83.43;38.47;;;;;;;0.01;97.63;100644.28;10379678;28;20072;-72
2022/12/02 20:59:43;;;;;;;78.53;39.00;;;;;;;-0.10;99.64;100644.03;10380858;28;20116;-72
2022/12/02 21:04:47;;;;;;;81.10;40.67;;;;;;;-0.12;100.00;100644.84;10379555;28;20052;-71
2022/12/02 21:09:49;;;;;;;87.93;41.22;;;;;;;-0.17;100.00;100641.31;10381233;28;20049;-72
2022/12/02 21:14:50;;;;;;;92.40;42.33;;;;;;;-0.36;100.00;100640.00;10379648;28;20048;-71
2022/12/02 21:19:52;;;;;;;91.10;43.08;;;;;;;-0.15;100.00;100637.91;10380197;28;20046;-71
2022/12/02 21:24:54;;;;;;;88.93;43.22;;;;;;;-0.30;100.00;100640.16;10380124;28;20486;-71
2022/12/02 21:29:56;;;;;;;88.43;42.47;;;;;;;-0.46;100.00;100640.66;10379417;28;20046;-71
2022/12/02 21:34:58;;;;;;;93.78;42.65;;;;;;;-0.47;100.00;100644.09;10378260;28;20061;-71
2022/12/02 21:40:06;;;;;;;91.55;42.30;;;;;;;-0.17;100.00;100644.75;10379336;28;20121;-72
2022/12/02 21:45:08;;;;;;;88.05;41.55;;;;;;;-0.44;100.00;100649.28;10377954;28;20132;-73
2022/12/02 21:50:10;;;;;;;90.22;42.20;;;;;;;-0.39;100.00;100645.13;10362135;28;20089;-72
2022/12/02 21:55:12;;;;;;;89.07;42.67;;;;;;;-0.34;100.00;100651.25;10379093;28;20225;-72
2022/12/02 22:00:15;;;;;;;93.65;42.70;;;;;;;-0.49;100.00;100648.31;10378966;28;20112;-71
2022/12/02 22:05:17;;;;;;;95.45;43.83;;;;;;;-0.56;100.00;100637.00;10377271;28;20504;-71
2022/12/02 22:10:24;;;;;;;87.80;41.67;;;;;;;-0.52;100.00;100641.41;10378710;28;20192;-74
2022/12/02 22:15:25;;;;;;;92.85;44.28;;;;;;;-0.38;100.00;100641.69;10377250;28;20053;-74
2022/12/02 22:20:27;;;;;;;90.45;42.00;;;;;;;-0.24;100.00;100636.84;10378150;28;20050;-73
2022/12/02 22:25:29;;;;;;;89.90;42.75;;;;;;;-0.33;100.00;100635.78;10377847;28;20046;-74
2022/12/02 22:30:30;;;;;;;95.80;44.55;;;;;;;-0.34;100.00;100641.81;10376254;28;20053;-75
2022/12/02 22:35:32;;;;;;;95.97;43.35;;;;;;;-0.42;100.00;100642.47;10376242;28;20057;-75
2022/12/02 22:40:34;;;;;;;90.00;42.85;;;;;;;-0.52;100.00;100631.94;10377456;28;20046;-74
2022/12/02 22:45:35;;;;;;;85.65;41.63;;;;;;;-0.44;100.00;100626.94;10376786;28;20041;-74
2022/12/02 22:50:37;;;;;;;93.20;44.28;;;;;;;-0.53;100.00;100637.06;10377429;28;20041;-75
2022/12/02 22:55:39;;;;;;;86.80;42.08;;;;;;;-0.40;100.00;100631.34;10377205;28;20041;-74
2022/12/02 23:00:41;;;;;;;91.18;43.60;;;;;;;-0.45;100.00;100627.75;10375113;28;20132;-75